createdAt,value
2022-12-31T06:43:55.244Z,29.55
2022-12-31T06:46:23.466Z,30.25
2022-12-31T06:48:51.477Z,25.17
2022-12-31T06:51:20.237Z,30.60
2022-12-31T06:53:49.151Z,20.30
2022-12-31T06:56:33.163Z,22.23
2022-12-31T06:59:03.295Z,35.38
2022-12-31T07:01:51.026Z,24.63
2022-12-31T07:04:40.259Z,35.05
2022-12-31T07:07:26.630Z,21.13
2022-12-31T07:09:57.328Z,31.35
2022-12-31T07:12:54.034Z,30.10
2022-12-31T07:15:59.720Z,28.75
2022-12-31T07:18:43.030Z,25.08
2022-12-31T07:21:13.656Z,24.95
2022-12-31T07:23:42.269Z,22.77
2022-12-31T07:26:23.076Z,19.73
2022-12-31T07:29:07.073Z,23.08
2022-12-31T07:31:37.884Z,27.48
2022-12-31T07:34:30.271Z,26.02
2022-12-31T07:37:28.055Z,26.17
2022-12-31T07:40:24.696Z,27.23
2022-12-31T07:43:05.236Z,23.55
2022-12-31T07:45:49.800Z,22.65
2022-12-31T07:48:27.300Z,24.77
2022-12-31T07:50:56.300Z,20.15
2022-12-31T07:53:24.557Z,19.30
2022-12-31T07:56:02.578Z,21.70
2022-12-31T07:58:55.161Z,22.00
2022-12-31T08:01:43.579Z,21.45
2022-12-31T08:04:21.741Z,23.02
2022-12-31T08:07:01.223Z,20.15
2022-12-31T08:09:56.747Z,18.73
2022-12-31T08:12:25.331Z,24.63
2022-12-31T08:14:53.190Z,17.70
2022-12-31T08:17:21.423Z,13.82
2022-12-31T08:19:49.541Z,25.73
2022-12-31T08:22:26.129Z,25.88
2022-12-31T08:25:18.030Z,14.68
2022-12-31T08:27:46.254Z,18.23
2022-12-31T08:30:18.133Z,17.20
2022-12-31T08:32:50.433Z,18.17
2022-12-31T08:35:38.809Z,17.52
2022-12-31T08:38:35.903Z,14.65
2022-12-31T08:41:29.023Z,19.67
2022-12-31T08:44:31.919Z,16.08
2022-12-31T08:47:02.919Z,17.55
2022-12-31T08:49:34.745Z,21.17
2022-12-31T08:52:03.117Z,21.55
2022-12-31T08:54:31.103Z,17.67
2022-12-31T08:57:09.668Z,20.02
2022-12-31T08:59:49.715Z,20.17
2022-12-31T09:02:36.976Z,15.95
2022-12-31T09:05:07.315Z,18.92
2022-12-31T09:07:39.605Z,19.50
2022-12-31T09:10:27.369Z,16.65
2022-12-31T09:13:05.789Z,23.95
2022-12-31T09:15:38.766Z,18.38
2022-12-31T09:18:08.432Z,17.40
2022-12-31T09:20:44.865Z,17.15
2022-12-31T09:23:13.422Z,16.58
2022-12-31T09:25:58.138Z,23.17
2022-12-31T09:28:37.309Z,16.80
2022-12-31T09:31:17.609Z,15.13
2022-12-31T09:33:53.492Z,12.35
2022-12-31T09:36:32.779Z,16.92
2022-12-31T09:39:15.182Z,11.68
2022-12-31T09:41:55.071Z,12.57
2022-12-31T09:44:41.393Z,10.55
2022-12-31T09:47:46.804Z,11.90
2022-12-31T09:50:37.764Z,13.38
2022-12-31T09:53:09.613Z,14.00
2022-12-31T09:55:40.247Z,19.38
2022-12-31T09:58:18.675Z,17.23
2022-12-31T10:00:51.324Z,13.20
2022-12-31T10:03:23.375Z,14.63
2022-12-31T10:06:05.674Z,19.55
2022-12-31T10:08:54.679Z,21.10
2022-12-31T10:11:58.247Z,18.30
2022-12-31T10:14:47.902Z,12.45
2022-12-31T10:17:18.873Z,14.88
2022-12-31T10:19:52.594Z,16.80
2022-12-31T10:23:04.538Z,10.38
2022-12-31T10:25:53.846Z,8.02
2022-12-31T10:28:31.771Z,9.75
2022-12-31T10:31:33.463Z,8.07
2022-12-31T10:37:10.613Z,9.52
2022-12-31T10:39:38.370Z,11.77
2022-12-31T10:42:27.111Z,9.65
2022-12-31T10:45:24.509Z,12.43
2022-12-31T10:48:29.385Z,13.48
2022-12-31T10:51:09.310Z,9.77
2022-12-31T10:54:15.685Z,13.10
2022-12-31T10:57:07.361Z,11.88
2022-12-31T10:59:54.319Z,8.18
2022-12-31T11:02:31.362Z,14.15
2022-12-31T11:05:21.132Z,12.50
2022-12-31T11:08:03.344Z,8.77
2022-12-31T11:10:53.358Z,11.75
2022-12-31T11:13:39.703Z,9.05
2022-12-31T11:16:19.846Z,10.10
2022-12-31T11:19:06.199Z,11.02
2022-12-31T11:22:01.381Z,15.30
2022-12-31T11:24:38.393Z,12.25
2022-12-31T11:27:18.450Z,13.98
2022-12-31T11:30:13.911Z,13.27
2022-12-31T11:33:09.790Z,15.05
2022-12-31T11:36:02.215Z,10.13
2022-12-31T11:38:34.652Z,12.63
2022-12-31T11:41:13.982Z,9.85
2022-12-31T11:43:53.789Z,11.05
2022-12-31T11:46:58.701Z,14.88
2022-12-31T11:49:26.637Z,12.95
2022-12-31T11:52:21.782Z,12.63
2022-12-31T11:55:34.304Z,10.80
2022-12-31T11:58:17.914Z,9.98
2022-12-31T12:00:53.922Z,10.65
2022-12-31T12:03:21.796Z,8.77
2022-12-31T12:05:49.469Z,12.68
2022-12-31T12:08:17.473Z,9.90
2022-12-31T12:10:47.398Z,8.30
2022-12-31T12:13:18.092Z,11.23
2022-12-31T12:15:48.335Z,13.38
2022-12-31T12:18:36.284Z,7.47
2022-12-31T12:21:07.183Z,12.02
2022-12-31T12:23:35.035Z,11.75
2022-12-31T12:26:02.765Z,6.95
2022-12-31T12:28:44.128Z,9.90
2022-12-31T12:31:21.161Z,10.55
2022-12-31T12:33:49.691Z,8.57
2022-12-31T12:36:18.262Z,10.38
2022-12-31T12:38:46.034Z,8.70
2022-12-31T12:41:22.143Z,14.30
2022-12-31T12:43:50.061Z,10.68
2022-12-31T12:46:31.011Z,11.30
2022-12-31T12:49:04.790Z,10.13
2022-12-31T12:52:13.313Z,8.00
2022-12-31T12:55:20.163Z,14.90
2022-12-31T12:58:17.143Z,10.85
2022-12-31T13:01:14.679Z,12.52
2022-12-31T13:04:35.554Z,10.15
2022-12-31T13:07:12.806Z,10.07
2022-12-31T13:09:44.800Z,7.97
2022-12-31T13:12:26.630Z,7.63
2022-12-31T13:15:12.781Z,10.75
2022-12-31T13:17:43.943Z,10.68
2022-12-31T13:20:30.511Z,12.57
2022-12-31T13:23:34.913Z,11.73
2022-12-31T13:26:24.988Z,12.27
2022-12-31T13:28:52.857Z,11.05
2022-12-31T13:31:23.933Z,11.95
2022-12-31T13:36:21.779Z,10.25
2022-12-31T13:38:53.441Z,10.50
2022-12-31T13:41:29.656Z,9.48
2022-12-31T13:44:17.591Z,9.10
2022-12-31T13:46:51.523Z,18.92
2022-12-31T13:49:22.090Z,10.65
2022-12-31T13:51:50.866Z,9.80
2022-12-31T13:54:36.902Z,13.40
2022-12-31T13:57:09.222Z,10.25
2022-12-31T13:59:39.996Z,10.77
2022-12-31T14:02:25.630Z,10.23
2022-12-31T14:04:56.584Z,10.35
2022-12-31T14:07:34.736Z,12.45
2022-12-31T14:10:12.433Z,9.77
2022-12-31T14:12:55.929Z,11.85
2022-12-31T14:15:30.627Z,14.80
2022-12-31T14:18:07.247Z,12.32
2022-12-31T14:20:49.832Z,7.00
2022-12-31T14:23:24.406Z,11.27
2022-12-31T14:25:52.085Z,10.15
2022-12-31T14:28:22.057Z,13.40
2022-12-31T14:30:51.057Z,9.75
2022-12-31T14:33:56.237Z,20.17
2022-12-31T14:37:01.624Z,14.57
2022-12-31T14:39:42.098Z,14.80
2022-12-31T14:42:15.654Z,15.90
2022-12-31T14:45:16.176Z,15.73
2022-12-31T14:47:54.202Z,13.50
2022-12-31T14:50:29.075Z,11.18
2022-12-31T14:52:59.785Z,14.10
2022-12-31T14:55:28.705Z,11.68
2022-12-31T14:58:27.020Z,13.98
2022-12-31T15:01:08.860Z,13.25
2022-12-31T15:03:45.480Z,13.27
2022-12-31T15:06:40.833Z,14.95
2022-12-31T15:09:29.793Z,14.75
2022-12-31T15:12:01.067Z,16.30
2022-12-31T15:15:13.764Z,23.13
2022-12-31T15:18:02.735Z,20.35
2022-12-31T15:20:41.929Z,21.90
2022-12-31T15:23:15.124Z,19.67
2022-12-31T15:25:47.401Z,24.77
2022-12-31T15:28:36.643Z,22.42
2022-12-31T15:31:18.151Z,25.65
2022-12-31T15:34:03.429Z,33.13
2022-12-31T15:36:39.101Z,29.80
2022-12-31T15:39:24.397Z,30.67
2022-12-31T15:42:36.061Z,29.63
2022-12-31T15:44:59.497Z,30.67
2022-12-31T15:47:31.711Z,32.33
2022-12-31T15:50:22.869Z,28.08
2022-12-31T15:52:54.538Z,34.28
2022-12-31T15:55:34.299Z,42.25
2022-12-31T15:58:16.964Z,38.13
2022-12-31T16:00:47.780Z,36.58
2022-12-31T16:03:23.628Z,38.40
2022-12-31T16:05:52.488Z,33.85
2022-12-31T16:08:21.634Z,37.35
2022-12-31T16:10:49.531Z,30.58
2022-12-31T16:13:19.998Z,36.72
2022-12-31T16:16:20.339Z,39.13
2022-12-31T16:18:50.274Z,38.08
2022-12-31T16:21:28.218Z,38.20
2022-12-31T16:23:57.634Z,38.30
2022-12-31T16:26:28.568Z,40.10
2022-12-31T16:29:00.044Z,38.58
2022-12-31T16:31:28.801Z,38.70
